createdAt,value
2018-02-12T00:01:59.565Z,12.27
2018-02-12T00:04:27.841Z,9.93
2018-02-12T00:06:56.173Z,9.70
2018-02-12T00:09:24.379Z,12.63
2018-02-12T00:11:52.724Z,11.00
2018-02-12T00:14:21.022Z,14.33
2018-02-12T00:16:50.092Z,17.00
2018-02-12T00:19:18.309Z,14.00
2018-02-12T00:21:46.674Z,11.97
2018-02-12T00:24:14.997Z,9.20
2018-02-12T00:26:43.258Z,11.07
2018-02-12T00:29:11.569Z,7.70
2018-02-12T00:31:39.831Z,8.43
2018-02-12T00:34:08.078Z,10.50
2018-02-12T00:36:36.361Z,7.40
2018-02-12T00:39:04.586Z,11.03
2018-02-12T00:41:33.619Z,11.53
2018-02-12T00:44:01.934Z,9.23
2018-02-12T00:46:30.136Z,9.33
2018-02-12T00:48:59.137Z,12.07
2018-02-12T00:51:27.421Z,11.07
2018-02-12T00:53:55.919Z,11.77
2018-02-12T00:56:24.158Z,13.20
2018-02-12T00:58:52.506Z,15.20
2018-02-12T01:01:20.746Z,14.93
2018-02-12T01:03:49.004Z,17.57
2018-02-12T01:06:17.339Z,16.33
2018-02-12T01:08:45.727Z,17.60
2018-02-12T01:11:14.100Z,21.50
2018-02-12T01:13:43.154Z,15.07
2018-02-12T01:16:11.379Z,14.73
2018-02-12T01:18:39.624Z,15.47
2018-02-12T01:21:07.898Z,15.80
2018-02-12T01:23:36.178Z,15.27
2018-02-12T01:26:04.656Z,15.10
2018-02-12T01:28:32.967Z,17.17
2018-02-12T01:31:01.317Z,14.60
2018-02-12T01:33:29.582Z,20.97
2018-02-12T01:35:57.794Z,13.47
2018-02-12T01:38:26.232Z,17.37
2018-02-12T01:40:54.739Z,16.27
2018-02-12T01:43:23.010Z,16.17
2018-02-12T01:45:52.064Z,14.90
2018-02-12T01:48:20.360Z,13.77
2018-02-12T01:50:48.618Z,17.17
2018-02-12T01:53:17.009Z,16.53
2018-02-12T01:55:45.254Z,13.27
2018-02-12T01:58:13.557Z,14.87
2018-02-12T02:00:41.769Z,15.87
2018-02-12T02:03:10.050Z,17.80
2018-02-12T02:05:38.289Z,20.27
2018-02-12T02:08:07.387Z,21.13
2018-02-12T02:10:35.624Z,16.30
2018-02-12T02:13:03.861Z,18.93
2018-02-12T02:15:32.203Z,21.03
2018-02-12T02:18:01.269Z,18.20
2018-02-12T02:20:29.569Z,26.87
2018-02-12T02:22:57.786Z,19.85
2018-02-12T02:25:26.118Z,16.23
2018-02-12T02:27:54.350Z,19.73
2018-02-12T02:30:22.653Z,17.00
2018-02-12T02:32:50.912Z,20.23
2018-02-12T02:35:19.172Z,16.80
2018-02-12T02:37:47.413Z,15.97
2018-02-12T02:40:16.435Z,19.97
2018-02-12T02:42:44.803Z,18.70
2018-02-12T02:45:13.234Z,20.03
2018-02-12T02:47:41.616Z,17.83
2018-02-12T02:50:09.828Z,21.03
2018-02-12T02:52:38.107Z,19.53
2018-02-12T02:55:06.367Z,19.40
2018-02-12T02:57:34.614Z,18.67
2018-02-12T03:00:02.846Z,22.37
2018-02-12T03:02:31.102Z,19.40
2018-02-12T03:04:59.440Z,18.60
2018-02-12T03:07:27.680Z,20.10
2018-02-12T03:09:55.934Z,20.43
2018-02-12T03:12:24.260Z,15.43
2018-02-12T03:14:52.494Z,18.47
2018-02-12T03:17:20.812Z,21.07
2018-02-12T03:19:49.034Z,16.07
2018-02-12T03:22:17.377Z,18.57
2018-02-12T03:24:46.457Z,17.83
2018-02-12T03:27:14.693Z,14.33
2018-02-12T03:29:42.975Z,16.97
2018-02-12T03:32:11.331Z,13.43
2018-02-12T03:34:39.658Z,16.63
2018-02-12T03:37:07.928Z,21.07
2018-02-12T03:39:36.434Z,14.97
2018-02-12T03:42:04.671Z,11.20
2018-02-12T03:44:32.978Z,20.17
2018-02-12T03:47:02.040Z,18.43
2018-02-12T03:49:30.253Z,22.57
2018-02-12T03:51:58.682Z,16.03
2018-02-12T03:54:26.954Z,19.77
2018-02-12T03:56:55.246Z,17.23
2018-02-12T03:59:23.498Z,13.87
2018-02-12T04:01:51.910Z,18.40
2018-02-12T04:04:20.150Z,17.37
2018-02-12T04:06:48.418Z,17.20
2018-02-12T04:09:16.686Z,17.43
2018-02-12T04:11:44.933Z,13.47
2018-02-12T04:14:13.944Z,13.67
2018-02-12T04:16:42.275Z,17.73
2018-02-12T04:19:10.490Z,18.30
2018-02-12T04:21:38.733Z,13.93
2018-02-12T04:24:07.744Z,12.33
2018-02-12T04:26:36.091Z,12.63
2018-02-12T04:29:04.351Z,15.27
2018-02-12T04:31:32.630Z,15.33
2018-02-12T04:34:01.119Z,18.00
2018-02-12T04:36:29.394Z,10.80
2018-02-12T04:38:57.605Z,17.93
2018-02-12T04:41:25.874Z,12.33
2018-02-12T04:43:54.257Z,18.20
2018-02-12T04:46:22.502Z,10.83
2018-02-12T04:48:50.766Z,11.70
2018-02-12T04:51:19.018Z,14.07
2018-02-12T04:53:47.298Z,13.20
2018-02-12T04:56:15.699Z,18.77
2018-02-12T04:58:43.925Z,16.07
2018-02-12T05:01:13.268Z,15.07
2018-02-12T05:03:41.523Z,11.37
2018-02-12T05:06:09.766Z,16.57
2018-02-12T05:08:38.122Z,16.40
2018-02-12T05:11:06.495Z,15.73
2018-02-12T05:13:34.722Z,15.93
2018-02-12T05:16:03.023Z,20.27
2018-02-12T05:18:31.507Z,15.97
2018-02-12T05:20:59.795Z,15.90
2018-02-12T05:23:28.043Z,13.57
2018-02-12T05:25:56.325Z,14.30
2018-02-12T05:28:24.550Z,17.13
2018-02-12T05:30:52.814Z,11.70
2018-02-12T05:33:21.098Z,15.13
2018-02-12T05:35:49.343Z,17.27
2018-02-12T05:38:18.418Z,17.40
2018-02-12T05:40:46.698Z,14.27
2018-02-12T05:43:14.959Z,17.23
2018-02-12T05:45:43.227Z,17.47
2018-02-12T05:48:11.627Z,18.40
2018-02-12T05:50:39.849Z,12.70
2018-02-12T05:53:08.278Z,14.30
2018-02-12T05:55:37.359Z,16.23
2018-02-12T05:58:05.637Z,14.87
2018-02-12T06:00:34.120Z,17.93
2018-02-12T06:03:02.495Z,18.40
2018-02-12T06:05:30.723Z,15.27
2018-02-12T06:07:58.978Z,16.50
2018-02-12T06:10:27.217Z,15.53
2018-02-12T06:12:56.250Z,13.10
2018-02-12T06:15:24.539Z,11.80
2018-02-12T06:17:52.976Z,17.43
2018-02-12T06:20:22.133Z,14.53
2018-02-12T06:22:50.375Z,13.93
2018-02-12T06:25:18.674Z,14.50
2018-02-12T06:27:46.911Z,20.37
2018-02-12T06:30:15.146Z,11.43
2018-02-12T06:32:43.534Z,11.37
2018-02-12T06:35:11.822Z,11.47
2018-02-12T06:37:40.898Z,13.23
2018-02-12T06:40:09.147Z,18.00
2018-02-12T06:42:37.491Z,17.73
2018-02-12T06:45:05.761Z,13.57
2018-02-12T06:47:34.022Z,14.07
2018-02-12T06:50:03.058Z,13.33
2018-02-12T06:52:31.302Z,11.80
2018-02-12T06:54:59.603Z,11.77
2018-02-12T06:57:27.882Z,13.73
2018-02-12T06:59:56.155Z,17.37
2018-02-12T07:02:24.399Z,16.97
2018-02-12T07:04:52.727Z,18.53
2018-02-12T07:07:20.930Z,9.87
2018-02-12T07:09:49.979Z,17.53
2018-02-12T07:12:18.237Z,15.97
2018-02-12T07:14:47.215Z,12.43
2018-02-12T07:17:15.466Z,13.53
2018-02-12T07:19:44.497Z,19.30
2018-02-12T07:22:12.746Z,10.97
2018-02-12T07:24:41.135Z,17.30
2018-02-12T07:27:09.455Z,11.73
2018-02-12T07:29:37.765Z,14.27
2018-02-12T07:32:06.955Z,11.73
2018-02-12T07:34:35.211Z,16.17
2018-02-12T07:37:03.470Z,14.30
2018-02-12T07:39:31.705Z,16.50
2018-02-12T07:42:00.243Z,10.80
2018-02-12T07:44:30.012Z,15.30
2018-02-12T07:46:58.299Z,15.27
2018-02-12T07:49:26.570Z,11.33
2018-02-12T07:51:54.835Z,11.63
2018-02-12T07:54:23.146Z,13.47
2018-02-12T07:56:53.150Z,13.07
2018-02-12T07:59:21.391Z,18.90
2018-02-12T08:01:49.777Z,15.90
2018-02-12T08:04:18.079Z,15.63
2018-02-12T08:06:46.352Z,12.90
2018-02-12T08:09:14.591Z,13.53
2018-02-12T08:11:42.827Z,16.63
2018-02-12T08:14:11.085Z,14.20
2018-02-12T08:16:40.154Z,14.80
2018-02-12T08:19:08.385Z,17.83
2018-02-12T08:21:37.440Z,11.00
2018-02-12T08:24:05.830Z,12.17
2018-02-12T08:26:34.086Z,13.07
2018-02-12T08:29:03.902Z,13.60
2018-02-12T08:31:32.130Z,15.50
2018-02-12T08:34:01.370Z,8.47
2018-02-12T08:36:29.615Z,19.23
2018-02-12T08:38:57.945Z,13.93
2018-02-12T08:41:26.967Z,11.03
2018-02-12T08:43:55.992Z,10.20
2018-02-12T08:46:24.303Z,14.30
2018-02-12T08:48:52.580Z,13.37
2018-02-12T08:51:20.815Z,13.97
2018-02-12T08:53:49.089Z,17.17
2018-02-12T08:56:17.335Z,8.33
2018-02-12T08:58:45.734Z,9.03
2018-02-12T09:01:13.987Z,14.30
2018-02-12T09:03:42.295Z,11.33
2018-02-12T09:06:10.551Z,10.40
2018-02-12T09:08:38.788Z,10.73
2018-02-12T09:11:07.971Z,10.67
2018-02-12T09:13:36.285Z,8.67
2018-02-12T09:16:04.734Z,9.77
2018-02-12T09:18:33.093Z,12.53
2018-02-12T09:21:01.341Z,10.43
2018-02-12T09:23:29.583Z,11.93
2018-02-12T09:25:57.928Z,8.60
2018-02-12T09:28:26.188Z,10.13
2018-02-12T09:30:54.438Z,8.40
2018-02-12T09:33:22.857Z,14.33
2018-02-12T09:35:51.073Z,7.83
2018-02-12T09:38:19.558Z,8.90
2018-02-12T09:40:47.809Z,8.57
2018-02-12T09:43:16.860Z,8.17
2018-02-12T09:45:45.087Z,9.40
2018-02-12T09:48:13.422Z,12.73
2018-02-12T09:50:41.794Z,9.90
2018-02-12T09:53:10.014Z,8.93
2018-02-12T09:55:38.698Z,12.17
2018-02-12T09:58:07.921Z,14.60
2018-02-12T10:00:36.215Z,10.27
2018-02-12T10:03:04.510Z,12.97
2018-02-12T10:05:32.932Z,12.47
2018-02-12T10:08:01.195Z,8.43
2018-02-12T10:10:29.434Z,9.67
2018-02-12T10:12:57.740Z,6.03
2018-02-12T10:15:26.791Z,12.77
2018-02-12T10:17:55.096Z,9.33
2018-02-12T10:20:23.363Z,15.33
2018-02-12T10:22:51.743Z,7.33
2018-02-12T10:25:19.983Z,9.33
2018-02-12T10:27:48.258Z,8.60
2018-02-12T10:30:16.513Z,6.97
2018-02-12T10:32:44.766Z,8.77
2018-02-12T10:35:13.177Z,10.50
2018-02-12T10:37:41.437Z,10.50
2018-02-12T10:40:09.811Z,12.03
2018-02-12T10:42:38.071Z,11.90
2018-02-12T10:45:06.440Z,8.93
2018-02-12T10:47:35.566Z,11.20
2018-02-12T10:50:03.811Z,8.30
2018-02-12T10:52:32.070Z,11.00
2018-02-12T10:55:01.084Z,12.00
2018-02-12T10:57:29.351Z,12.37
2018-02-12T10:59:57.640Z,11.33
2018-02-12T11:02:25.968Z,9.57
2018-02-12T11:04:55.718Z,9.70
2018-02-12T11:07:24.026Z,6.27
2018-02-12T11:09:52.299Z,6.80
2018-02-12T11:12:20.543Z,12.93
2018-02-12T11:14:48.805Z,10.37
2018-02-12T11:17:17.088Z,11.60
2018-02-12T11:19:46.180Z,11.13
2018-02-12T11:22:14.445Z,6.30
2018-02-12T11:24:43.492Z,8.27
2018-02-12T11:27:13.283Z,12.37
2018-02-12T11:29:41.583Z,8.33
2018-02-12T11:32:09.842Z,6.93
2018-02-12T11:34:39.115Z,6.83
2018-02-12T11:37:08.201Z,6.93
2018-02-12T11:39:37.244Z,11.23
2018-02-12T11:42:05.483Z,9.20
2018-02-12T11:44:33.747Z,11.20
2018-02-12T11:47:02.760Z,9.67
2018-02-12T11:49:31.251Z,11.47
2018-02-12T11:51:59.483Z,6.20
2018-02-12T11:54:28.582Z,7.33
2018-02-12T11:56:56.875Z,12.13
2018-02-12T11:59:25.126Z,8.13
2018-02-12T12:01:54.295Z,10.33
2018-02-12T12:04:22.698Z,9.83
2018-02-12T12:06:51.747Z,7.50
2018-02-12T12:09:19.998Z,10.73
2018-02-12T12:11:48.246Z,9.83
2018-02-12T12:14:16.633Z,7.70
2018-02-12T12:16:44.911Z,7.30
2018-02-12T12:19:13.167Z,8.07
2018-02-12T12:21:41.538Z,15.73
2018-02-12T12:24:09.867Z,9.90
2018-02-12T12:26:38.175Z,7.83
2018-02-12T12:29:10.082Z,8.93
2018-02-12T12:31:38.426Z,8.53
2018-02-12T12:34:07.482Z,8.93
2018-02-12T12:36:35.722Z,8.90
2018-02-12T12:39:03.970Z,5.13
2018-02-12T12:41:32.284Z,7.07
2018-02-12T12:44:00.543Z,8.43
2018-02-12T12:46:28.805Z,9.77
2018-02-12T12:48:58.630Z,13.80
2018-02-12T12:51:26.876Z,6.67
2018-02-12T12:53:55.179Z,6.23
2018-02-12T12:56:23.500Z,7.83
2018-02-12T12:58:51.766Z,8.00
2018-02-12T13:01:20.831Z,9.63
2018-02-12T13:03:49.159Z,8.83
2018-02-12T13:06:17.364Z,6.90
2018-02-12T13:08:46.422Z,6.13
2018-02-12T13:11:14.642Z,10.97
2018-02-12T13:13:42.902Z,7.67
2018-02-12T13:16:11.911Z,12.03
2018-02-12T13:18:40.159Z,8.03
2018-02-12T13:21:08.468Z,8.43
2018-02-12T13:23:36.707Z,15.43
2018-02-12T13:26:05.034Z,8.93
2018-02-12T13:28:33.256Z,10.97
2018-02-12T13:31:02.275Z,11.67
2018-02-12T13:33:30.575Z,9.73
2018-02-12T13:35:58.858Z,7.67
2018-02-12T13:38:27.156Z,8.30
2018-02-12T13:40:55.474Z,11.77
2018-02-12T13:43:23.731Z,14.37
2018-02-12T13:45:52.797Z,6.37
2018-02-12T13:48:21.027Z,12.03
2018-02-12T13:50:49.336Z,9.90
2018-02-12T13:53:17.613Z,9.40
2018-02-12T13:55:46.002Z,9.33
2018-02-12T13:58:14.243Z,10.40
2018-02-12T14:00:42.522Z,8.60
2018-02-12T14:03:10.910Z,10.30
2018-02-12T14:05:39.178Z,5.83
2018-02-12T14:08:07.424Z,7.37
2018-02-12T14:10:35.694Z,7.00
2018-02-12T14:13:03.948Z,5.20
2018-02-12T14:15:32.182Z,8.63
2018-02-12T14:18:00.422Z,9.53
2018-02-12T14:20:28.927Z,6.07
2018-02-12T14:22:57.160Z,10.43
2018-02-12T14:25:25.478Z,10.77
2018-02-12T14:27:53.710Z,12.30
2018-02-12T14:30:21.971Z,10.47
2018-02-12T14:32:50.968Z,10.10
2018-02-12T14:35:20.031Z,8.27
2018-02-12T14:37:48.288Z,10.67
2018-02-12T14:40:16.558Z,7.73
2018-02-12T14:42:44.963Z,10.73
2018-02-12T14:45:13.133Z,10.97
2018-02-12T14:47:41.379Z,7.43
2018-02-12T14:50:09.643Z,8.23
2018-02-12T14:52:38.010Z,10.30
2018-02-12T14:55:06.358Z,8.37
2018-02-12T14:57:34.669Z,9.77
2018-02-12T15:00:02.899Z,10.33
2018-02-12T15:02:31.949Z,10.83
2018-02-12T15:05:00.182Z,10.83
2018-02-12T15:07:28.446Z,8.57
2018-02-12T15:09:57.463Z,9.67
2018-02-12T15:12:25.711Z,10.57
2018-02-12T15:14:54.732Z,8.73
2018-02-12T15:17:23.105Z,9.27
2018-02-12T15:19:51.342Z,8.73
2018-02-12T15:22:19.611Z,10.77
2018-02-12T15:24:47.846Z,10.70
2018-02-12T15:27:16.122Z,10.37
2018-02-12T15:29:44.419Z,7.67
2018-02-12T15:32:12.664Z,9.47
2018-02-12T15:34:40.940Z,9.10
2018-02-12T15:37:09.263Z,12.50
2018-02-12T15:39:37.486Z,12.60
2018-02-12T15:42:05.821Z,10.80
2018-02-12T15:44:34.871Z,10.20
2018-02-12T15:47:03.914Z,8.73
2018-02-12T15:49:32.969Z,8.67
2018-02-12T15:52:01.263Z,9.80
2018-02-12T15:54:29.515Z,7.27
2018-02-12T15:56:57.796Z,10.00
2018-02-12T15:59:26.091Z,8.47
2018-02-12T16:01:55.184Z,9.73
2018-02-12T16:04:23.450Z,11.93
2018-02-12T16:06:51.674Z,10.60
2018-02-12T16:09:19.959Z,10.53
2018-02-12T16:11:48.233Z,11.80
2018-02-12T16:14:16.467Z,10.90
2018-02-12T16:16:45.537Z,10.37
2018-02-12T16:19:13.802Z,8.47
2018-02-12T16:21:42.064Z,12.93
2018-02-12T16:24:10.329Z,10.90
2018-02-12T16:26:38.590Z,10.47
2018-02-12T16:29:07.659Z,12.27
2018-02-12T16:31:36.714Z,9.70
2018-02-12T16:34:05.100Z,14.63
2018-02-12T16:36:34.326Z,12.83
2018-02-12T16:39:02.619Z,7.90
2018-02-12T16:41:31.703Z,12.30
2018-02-12T16:44:00.765Z,12.17
2018-02-12T16:46:29.040Z,6.90
2018-02-12T16:48:57.295Z,11.07
2018-02-12T16:51:25.546Z,10.80
2018-02-12T16:53:53.923Z,14.63
2018-02-12T16:56:22.918Z,10.57
2018-02-12T16:58:51.890Z,11.70
2018-02-12T17:01:20.132Z,12.57
2018-02-12T17:03:48.733Z,10.60
2018-02-12T17:06:17.764Z,11.20
2018-02-12T17:08:46.060Z,11.17
2018-02-12T17:11:14.299Z,11.37
2018-02-12T17:13:42.562Z,14.40
2018-02-12T17:16:10.826Z,12.23
2018-02-12T17:18:39.866Z,10.57
2018-02-12T17:21:08.176Z,11.10
2018-02-12T17:23:37.616Z,10.60
2018-02-12T17:26:06.277Z,13.00
2018-02-12T17:28:34.539Z,10.67
2018-02-12T17:31:02.935Z,16.20
2018-02-12T17:33:32.113Z,10.87
2018-02-12T17:36:00.358Z,12.60
2018-02-12T17:38:28.621Z,10.17
2018-02-12T17:40:56.934Z,12.67
2018-02-12T17:43:25.256Z,10.97
2018-02-12T17:45:53.547Z,13.30
2018-02-12T17:48:21.815Z,14.20
2018-02-12T17:50:50.103Z,11.77
2018-02-12T17:53:18.370Z,9.60
2018-02-12T17:55:46.709Z,16.30
2018-02-12T17:58:15.042Z,7.53
2018-02-12T18:00:43.316Z,11.63
2018-02-12T18:03:11.598Z,9.80
2018-02-12T18:05:39.879Z,13.43
2018-02-12T18:08:08.362Z,14.00
2018-02-12T18:10:36.949Z,11.20
2018-02-12T18:13:05.178Z,11.23
2018-02-12T18:15:33.500Z,10.77
2018-02-12T18:18:02.539Z,16.63
2018-02-12T18:20:30.843Z,13.20
2018-02-12T18:22:59.126Z,12.23
2018-02-12T18:25:27.393Z,14.53
2018-02-12T18:27:55.643Z,12.67
2018-02-12T18:30:23.919Z,11.30
2018-02-12T18:32:52.390Z,11.43
2018-02-12T18:35:20.670Z,13.90
2018-02-12T18:37:48.910Z,14.10
2018-02-12T18:40:17.947Z,14.20
2018-02-12T18:42:46.188Z,12.77
2018-02-12T18:45:14.455Z,14.00
2018-02-12T18:47:43.525Z,17.83
2018-02-12T18:50:12.599Z,13.27
2018-02-12T18:52:40.814Z,12.50
2018-02-12T18:55:09.064Z,10.63
2018-02-12T18:57:37.454Z,9.77
2018-02-12T19:00:05.832Z,9.80
2018-02-12T19:02:34.932Z,17.63
2018-02-12T19:05:03.168Z,12.73
2018-02-12T19:07:31.470Z,17.57
2018-02-12T19:09:59.878Z,13.03
2018-02-12T19:12:28.097Z,15.33
2018-02-12T19:14:56.396Z,17.43
2018-02-12T19:17:26.510Z,18.07
2018-02-12T19:19:54.802Z,19.07
2018-02-12T19:22:23.853Z,14.00
2018-02-12T19:24:52.132Z,13.67
2018-02-12T19:27:20.390Z,15.53
2018-02-12T19:29:48.617Z,17.00
2018-02-12T19:32:17.674Z,15.33
2018-02-12T19:34:45.974Z,16.77
2018-02-12T19:37:14.190Z,18.03
2018-02-12T19:39:42.492Z,12.90
2018-02-12T19:42:10.734Z,14.63
2018-02-12T19:44:39.029Z,13.63
2018-02-12T19:47:07.547Z,15.03
2018-02-12T19:49:35.811Z,18.83
2018-02-12T19:52:04.115Z,18.97
2018-02-12T19:54:32.379Z,16.20
2018-02-12T19:57:01.577Z,20.77
2018-02-12T19:59:29.828Z,18.00
2018-02-12T20:01:58.088Z,19.27
2018-02-12T20:04:26.342Z,19.40
2018-02-12T20:06:54.706Z,16.27
2018-02-12T20:09:22.967Z,14.80
2018-02-12T20:11:52.044Z,16.90
2018-02-12T20:14:20.340Z,14.67
2018-02-12T20:16:49.535Z,20.63
2018-02-12T20:19:17.730Z,19.93
2018-02-12T20:21:46.053Z,17.57
2018-02-12T20:24:14.429Z,19.43
2018-02-12T20:26:42.682Z,16.70
2018-02-12T20:29:11.019Z,17.70
2018-02-12T20:31:39.374Z,19.73
2018-02-12T20:34:07.663Z,17.37
2018-02-12T20:36:35.941Z,18.60
2018-02-12T20:39:04.286Z,14.80
2018-02-12T20:41:32.521Z,17.20
2018-02-12T20:44:01.003Z,21.20
2018-02-12T20:46:29.290Z,18.87
2018-02-12T20:48:57.578Z,15.20
2018-02-12T20:51:25.847Z,17.30
2018-02-12T20:53:54.236Z,20.37
2018-02-12T20:56:22.556Z,21.70
2018-02-12T20:58:50.828Z,19.40
2018-02-12T21:01:19.147Z,16.30
2018-02-12T21:03:47.431Z,19.13
2018-02-12T21:06:16.779Z,19.13
2018-02-12T21:08:46.019Z,17.97
2018-02-12T21:11:14.296Z,16.40
2018-02-12T21:13:42.586Z,13.60
2018-02-12T21:16:10.865Z,18.73
2018-02-12T21:18:39.127Z,16.07
2018-02-12T21:21:07.402Z,18.80
2018-02-12T21:23:35.695Z,18.23
2018-02-12T21:26:03.945Z,16.57
2018-02-12T21:28:32.274Z,14.83
2018-02-12T21:31:01.299Z,16.07
2018-02-12T21:33:29.570Z,18.63
2018-02-12T21:35:57.827Z,15.90
2018-02-12T21:38:26.078Z,17.00
2018-02-12T21:40:54.580Z,19.33
2018-02-12T21:43:23.707Z,14.20
2018-02-12T21:45:51.990Z,20.47
2018-02-12T21:48:21.076Z,16.87
2018-02-12T21:50:49.336Z,16.37
2018-02-12T21:53:17.681Z,16.73
2018-02-12T21:55:46.731Z,16.50
2018-02-12T21:58:15.090Z,15.97
2018-02-12T22:00:43.426Z,17.40
2018-02-12T22:03:12.511Z,15.30
2018-02-12T22:05:41.542Z,16.63
2018-02-12T22:08:09.801Z,18.03
2018-02-12T22:10:38.254Z,16.73
2018-02-12T22:13:06.624Z,14.17
2018-02-12T22:15:34.848Z,18.67
2018-02-12T22:18:03.136Z,15.07
2018-02-12T22:20:31.550Z,18.43
2018-02-12T22:23:00.130Z,17.40
2018-02-12T22:25:28.383Z,14.13
2018-02-12T22:27:56.666Z,18.90
2018-02-12T22:30:24.910Z,16.07
2018-02-12T22:32:53.170Z,13.87
2018-02-12T22:35:21.441Z,13.90
2018-02-12T22:37:49.746Z,18.60
2018-02-12T22:40:18.158Z,12.83
2018-02-12T22:42:46.394Z,14.33
2018-02-12T22:45:14.670Z,12.53
2018-02-12T22:47:42.927Z,16.40
2018-02-12T22:50:11.182Z,12.97
2018-02-12T22:52:39.603Z,13.93
2018-02-12T22:55:07.850Z,14.23
2018-02-12T22:57:36.206Z,13.10
2018-02-12T23:00:05.239Z,14.73
2018-02-12T23:02:33.555Z,12.87
2018-02-12T23:05:01.819Z,8.77
2018-02-12T23:07:30.050Z,14.23
2018-02-12T23:09:58.307Z,11.77
2018-02-12T23:12:27.584Z,11.07
2018-02-12T23:14:55.803Z,12.57
2018-02-12T23:17:24.050Z,11.90
2018-02-12T23:19:52.336Z,11.63
2018-02-12T23:22:20.665Z,11.67
2018-02-12T23:24:48.949Z,9.40
2018-02-12T23:27:17.224Z,13.23
2018-02-12T23:29:45.487Z,13.43
2018-02-12T23:32:13.747Z,12.60
2018-02-12T23:34:42.007Z,14.73
2018-02-12T23:37:10.273Z,14.50
2018-02-12T23:39:38.545Z,10.63
2018-02-12T23:42:06.798Z,9.17
2018-02-12T23:44:35.826Z,12.37
2018-02-12T23:47:04.079Z,13.03
2018-02-12T23:49:32.332Z,15.07
2018-02-12T23:52:00.627Z,12.43
2018-02-12T23:54:28.870Z,9.30
2018-02-12T23:56:57.146Z,9.00
2018-02-12T23:59:25.647Z,12.43
